Texas Logo

Northwest, TX Single Family Real Estate Listings

3450 Total Real Estate Listings * Click on table heading to sort
Date Posted Property Type Style Address Price Living Area Lot Size Price/Sq Ft.
2018-08-18 Single Family Traditional 2239 Weathersfield Trace Circle Houston, TX 77014 $189,900 1,937 sq. ft. 11,326 sq. ft. $98
2018-08-18 Single Family Traditional 16519 Cheshire Grove Lane Houston, TX 77090 $140,000 1,609 sq. ft. 4,356 sq. ft. $87
2018-08-18 Single Family Contemporary/Modern 7522 Bull Creek Road Houston, TX 77095 $289,000 2,906 sq. ft. 11,326 sq. ft. $99
2018-08-18 Single Family Traditional 17010 Taffaine Drive Houston, TX 77090 $199,577 1,786 sq. ft. 2,614 sq. ft. $112
2018-08-18 Single Family Traditional 7423 Grand Terrace Court Houston, TX 77095 $186,500 1,666 sq. ft. 6,970 sq. ft. $112
2018-08-18 Single Family Traditional 1903 Banna Drive Houston, TX 77090 $189,372 1,456 sq. ft. 3,049 sq. ft. $130
2018-08-18 Single Family Traditional 1911 Sophia Drive Houston, TX 77090 $209,477 1,786 sq. ft. 3,049 sq. ft. $117
2018-08-18 Single Family French 3619 Somerset York Lane Houston, TX 77055 $978,500 3,158 sq. ft. 2,178 sq. ft. $310
2018-08-18 Single Family Traditional 7111 Shady Arbor Lane Houston, TX 77040 $175,000 2,169 sq. ft. 10,019 sq. ft. $81
2018-08-18 Single Family Traditional 7510 Forest Dawn Way Houston, TX 77095 $190,000 2,276 sq. ft. 7,405 sq. ft. $83
2018-08-18 Single Family Traditional 7243 Sunlight Lane Houston, TX 77095 $150,000 1,545 sq. ft. 6,098 sq. ft. $97
2018-08-18 Single Family Traditional 7751 Bunker Wood Lane Houston, TX 77086 $1,300 1,453 sq. ft. 10,019 sq. ft. $1
2018-08-18 Single Family Traditional 14814 Cedar Point Drive Houston, TX 77070 $210,000 2,962 sq. ft. 9,148 sq. ft. $71
2018-08-18 Single Family Traditional 18014 Green Hazel Drive Houston, TX 77084 $159,900 1,500 sq. ft. 7,405 sq. ft. $107
2018-08-18 Single Family Traditional 10107 Strawgrass Drive Houston, TX 77064 $169,900 1,650 sq. ft. 6,534 sq. ft. $103
2018-08-18 Single Family Traditional 5522 Foresthaven Drive Houston, TX 77066 $198,500 2,821 sq. ft. 7,405 sq. ft. $70
2018-08-18 Single Family Contemporary/Modern 6418 Gusty Trail Lane Houston, TX 77041 $259,000 2,822 sq. ft. 6,534 sq. ft. $92
2018-08-18 Single Family Traditional 21323 Clover Crest Drive Houston, TX 77095 $249,000 2,763 sq. ft. 5,663 sq. ft. $90
2018-08-18 Single Family Traditional 17310 Barker Street Houston, TX 77084 $175,000 1,693 sq. ft. 6,098 sq. ft. $103
2018-08-18 Single Family Contemporary/Modern 410 Yale Oaks Lane Houston, TX 77091 $309,900 1,802 sq. ft. 3,920 sq. ft. $172
2018-08-18 Single Family Contemporary/Modern 426 Yale Oaks Lane Houston, TX 77091 $289,900 1,602 sq. ft. 3,920 sq. ft. $181
2018-08-18 Single Family Contemporary/Modern 6013 Yale Oaks Lane Houston, TX 77091 $299,900 1,802 sq. ft. 3,920 sq. ft. $166
2018-08-18 Single Family Contemporary/Modern 6021 Yale Oaks Lane Houston, TX 77091 $279,900 1,602 sq. ft. 3,920 sq. ft. $175
2018-08-18 Single Family Contemporary/Modern 6402 Stonewood Pointe Lane Houston, TX 77066 $165,900 1,484 sq. ft. 5,663 sq. ft. $112
2018-08-18 Single Family Traditional 2415 Shady Brook Drive Houston, TX 77084 $168,000 1,682 sq. ft. 6,534 sq. ft. $100
2018-08-18 Single Family Contemporary/Modern 411 Yale Oaks Lane Houston, TX 77091 $324,900 2,013 sq. ft. 3,920 sq. ft. $161
2018-08-18 Single Family Contemporary/Modern 6017 Yale Oaks Lane Houston, TX 77091 $319,900 2,013 sq. ft. 3,920 sq. ft. $159
2018-08-18 Single Family Traditional 11407 High Bridge Court Houston, TX 77065 $225,900 2,562 sq. ft. 6,970 sq. ft. $88
2018-08-18 Single Family Traditional 14514 Old Tybee Road Houston, TX 77084 $240,000 2,963 sq. ft. 12,632 sq. ft. $81
2018-08-18 Single Family Traditional 9022 N Ferndale Place Drive Houston, TX 77064 $210,000 2,678 sq. ft. 5,663 sq. ft. $78
2018-08-18 Single Family Traditional 10415 Hamlet Vale Court Houston, TX 77070 $175,000 1,676 sq. ft. 5,663 sq. ft. $104
2018-08-18 Single Family Contemporary/Modern 18223 Mossforest Drive Houston, TX 77090 $208,900 1,827 sq. ft. 6,970 sq. ft. $114
2018-08-18 Single Family Traditional 4727 Cashel Glen Drive Houston, TX 77069 $129,000 1,922 sq. ft. 5,227 sq. ft. $67
2018-08-17 Single Family Mediterranean 5503 Island Breeze Drive Houston, TX 77041 $285,000 2,561 sq. ft. 7,841 sq. ft. $111
2018-08-17 Single Family Traditional 4507 Terrace Manor Drive Houston, TX 77041 $1,350 1,273 sq. ft. 3,485 sq. ft. $1
2018-08-17 Single Family Traditional 18927 Windy Stone Drive Houston, TX 77084 $200,000 2,248 sq. ft. 6,098 sq. ft. $89
2018-08-17 Single Family Traditional 17505 Wild Oak Drive Houston, TX 77090 $125,000 1,576 sq. ft. 6,970 sq. ft. $79
2018-08-17 Single Family Ranch 5726 Glen Allen Lane Houston, TX 77069 $260,000 2,046 sq. ft. 9,148 sq. ft. $127
2018-08-17 Single Family Traditional 16003 Juniper Grove Drive Houston, TX 77084 $199,000 2,328 sq. ft. 5,663 sq. ft. $85
2018-08-17 Single Family Contemporary/Modern 8408 Oak Leaf Point Drive Houston, TX 77055 $393,990 2,163 sq. ft. $182
2018-08-17 Single Family Traditional 9627 Clanton Street Houston, TX 77080 $282,000 1,956 sq. ft. 7,405 sq. ft. $144
2018-08-17 Single Family Traditional 5919 Harrow Drive Houston, TX 77084 $185,000 1,597 sq. ft. 5,227 sq. ft. $116
2018-08-17 Single Family Traditional 16438 Willingham Way Houston, TX 77095 $175,000 1,580 sq. ft. 8,712 sq. ft. $111
2018-08-17 Single Family Contemporary/Modern 1519 Auline Lane Houston, TX 77055 $919,000 3,652 sq. ft. 4,792 sq. ft. $252
2018-08-17 Single Family Traditional 1120 Wakefield Drive Houston, TX 77018 $369,500 1,538 sq. ft. 7,405 sq. ft. $240
2018-08-17 Single Family Traditional 908 Garden Oaks Terrace Houston, TX 77018 $341,000 1,922 sq. ft. 1,742 sq. ft. $177
2018-08-17 Single Family Traditional 16518 Cedar Sage Drive Houston, TX 77095 $285,000 2,687 sq. ft. 9,148 sq. ft. $106
2018-08-17 Single Family Traditional 1610 Huge Oaks Street Houston, TX 77055 $2,150,000 5,850 sq. ft. 14,810 sq. ft. $368
2018-08-17 Single Family Traditional 8919 Crazy Horse Trail Houston, TX 77064 $189,900 2,508 sq. ft. 8,712 sq. ft. $76
2018-08-17 Single Family Contemporary/Modern; Traditional 10014 Waving Grain Lane Houston, TX 77080 $330,995 2,052 sq. ft. 2,178 sq. ft. $161
2018-08-17 Single Family Traditional 3610 Echo Grove Lane Houston, TX 77043 $155,000 1,746 sq. ft. 6,098 sq. ft. $89
2018-08-17 Single Family Traditional 1619 Big Horn Drive Houston, TX 77090 $289,000 4,034 sq. ft. 9,148 sq. ft. $72
2018-08-17 Single Family Traditional 7518 Deep Forest Drive Houston, TX 77088 $179,950 2,369 sq. ft. 9,583 sq. ft. $76
2018-08-17 Single Family Traditional 9310 Carousel Lane Houston, TX 77080 $315,000 1,943 sq. ft. 20,473 sq. ft. $162
2018-08-17 Single Family Traditional 7618 Long Creek Court Houston, TX 77088 $238,000 3,001 sq. ft. 9,148 sq. ft. $79
2018-08-17 Single Family Traditional 16626 Royal Mile Lane Houston, TX 77084 $199,900 1,738 sq. ft. 6,970 sq. ft. $115
2018-08-17 Single Family Traditional 9606 Meadowchase Court Houston, TX 77065 $180,000 1,515 sq. ft. 10,454 sq. ft. $119
2018-08-17 Single Family Traditional 8523 Redcliff Road Houston, TX 77064 $159,000 1,878 sq. ft. 6,534 sq. ft. $85
2018-08-17 Single Family Traditional 15710 T C Jester Boulevard Houston, TX 77068 $165,000 2,566 sq. ft. 9,583 sq. ft. $64
2018-08-17 Single Family Traditional 12710 Cape Laurel Houston, TX 77014 $240,000 3,892 sq. ft. 13,939 sq. ft. $62
2018-08-17 Single Family Traditional 7618 Fieldstone Court Houston, TX 77095 $208,000 2,145 sq. ft. 6,970 sq. ft. $97
2018-08-17 Single Family Traditional 11422 Cypresswood Trail Drive Houston, TX 77070 $248,700 2,172 sq. ft. 6,534 sq. ft. $114
2018-08-17 Single Family Traditional 8962 Green Castle Way Houston, TX 77095 $215,000 2,115 sq. ft. 7,405 sq. ft. $102
2018-08-17 Single Family Traditional 11906 Marburg Drive Houston, TX 77066 $179,900 2,088 sq. ft. 6,534 sq. ft. $86
2018-08-17 Single Family Traditional 1302 Martin Street Houston, TX 77018 $345,000 1,139 sq. ft. 7,405 sq. ft. $303
2018-08-17 Single Family Traditional 19626 Chestnut Brook Court Houston, TX 77084 $215,000 2,285 sq. ft. 5,663 sq. ft. $94
2018-08-17 Single Family Traditional 9927 Churchill Way Drive Houston, TX 77065 $199,900 1,975 sq. ft. 9,148 sq. ft. $101
2018-08-17 Single Family Contemporary/Modern 19534 Younglake Boulevard Houston, TX 77084 $1,400 1,647 sq. ft. 7,841 sq. ft. $1
2018-08-17 Single Family Contemporary/Modern 5422 Old Lodge Drive Houston, TX 77066 $268,000 3,189 sq. ft. 11,326 sq. ft. $84
2018-08-17 Single Family Traditional 6231 Oak Pass Drive Houston, TX 77091 $234,500 2,376 sq. ft. 9,148 sq. ft. $99
2018-08-17 Single Family Traditional 21222 Branchport Drive Houston, TX 77095 $208,000 1,929 sq. ft. 5,227 sq. ft. $108
2018-08-17 Single Family Traditional 3702 Echo Grove Lane Houston, TX 77043 $185,000 1,567 sq. ft. 6,098 sq. ft. $118
2018-08-17 Single Family Traditional 5423 Sheraton Oaks Drive Houston, TX 77091 $179,900 1,921 sq. ft. 8,276 sq. ft. $94
2018-08-17 Single Family Traditional 16806 Coralbend Drive Houston, TX 77095 $264,949 2,665 sq. ft. 8,276 sq. ft. $99
2018-08-17 Single Family Contemporary/Modern 8514 Riverside Walk Lane Houston, TX 77064 $169,000 1,435 sq. ft. 6,534 sq. ft. $118
2018-08-17 Single Family Colonial; Traditional 2931 Triway Lane Houston, TX 77043 $449,000 3,959 sq. ft. 8,712 sq. ft. $113
2018-08-17 Single Family Traditional 953 Benchfield Drive Houston, TX 77091 $184,900 5,227 sq. ft.
2018-08-17 Single Family Traditional 6347 Limestone Street Houston, TX 77092 $130,000 1,319 sq. ft. 6,970 sq. ft. $99
2018-08-17 Single Family Other Style 2810 Jordens Road Houston, TX 77084 $575,000 2,856 sq. ft. 42,253 sq. ft. $201
2018-08-17 Single Family Traditional 11718 Berkway Trail Houston, TX 77065 $195,000 2,822 sq. ft. 5,663 sq. ft. $69
2018-08-17 Single Family Ranch 1447 Martin Street Houston, TX 77018 $365,000 1,152 sq. ft. 6,970 sq. ft. $317
2018-08-17 Single Family Traditional 2223 Mckean Drive Houston, TX 77080 $294,500 1,792 sq. ft. 5,663 sq. ft. $164
2018-08-17 Single Family Contemporary/Modern 11711 Chetman Drive Houston, TX 77065 $220,000 1,152 sq. ft. 3,920 sq. ft. $191
2018-08-17 Single Family Traditional 3606 Echo Grove Lane Houston, TX 77043 $185,000 1,579 sq. ft. 6,098 sq. ft. $117
2018-08-17 Single Family Traditional 15727 Sweetwater Creek Drive Houston, TX 77095 $309,900 3,490 sq. ft. 7,841 sq. ft. $89
2018-08-17 Single Family Traditional 16527 Bristle Creek Drive Houston, TX 77095 $194,500 1,788 sq. ft. 5,227 sq. ft. $109
2018-08-17 Single Family Traditional 5706 Saddle Bred Drive Houston, TX 77084 $209,900 2,801 sq. ft. 6,098 sq. ft. $75
2018-08-17 Single Family Traditional 18215 Fairhope Oak Court Houston, TX 77084 $199,900 2,440 sq. ft. 6,970 sq. ft. $82
2018-08-17 Single Family Traditional 9226 Landwood Drive Houston, TX 77040 $179,000 1,801 sq. ft. 8,276 sq. ft. $99
2018-08-17 Single Family Traditional 15303 T C Jester Boulevard Houston, TX 77068 $229,900 3,083 sq. ft. 10,019 sq. ft. $75
2018-08-16 Single Family Traditional 9203 Bent Spur Lane Houston, TX 77064 $336,900 3,352 sq. ft. 7,841 sq. ft. $101
2018-08-16 Single Family Traditional 1326 Flatrock Creek Drive Houston, TX 77067 $157,500 2,923 sq. ft. 6,534 sq. ft. $54
2018-08-16 Single Family Traditional 8322 Autumn Wind Drive Houston, TX 77040 $110,000 1,262 sq. ft. 5,227 sq. ft. $87
2018-08-16 Single Family Traditional 12415 Sterlingstone Drive Houston, TX 77066 $169,000 2,048 sq. ft. 4,356 sq. ft. $83
2018-08-16 Single Family Ranch 863 Sara Rose Street Houston, TX 77018 $392,650 1,518 sq. ft. 6,098 sq. ft. $259
2018-08-16 Single Family Contemporary/Modern 1732 Wrenwood Lakes Houston, TX 77043 $499,000 2,906 sq. ft. 3,049 sq. ft. $172
2018-08-16 Single Family Traditional 11615 Mile Drive Houston, TX 77065 $395,000 3,759 sq. ft. 27,007 sq. ft. $105
2018-08-16 Single Family Traditional 6247 Sutton Meadows Drive Houston, TX 77086 $169,000 1,912 sq. ft. 7,405 sq. ft. $88
2018-08-16 Single Family Traditional 14702 Wind Free Drive Houston, TX 77040 $185,000 1,781 sq. ft. 7,405 sq. ft. $104
2018-08-16 Single Family Traditional 8702 Preston Field Lane Houston, TX 77095 $300,000 3,133 sq. ft. 7,841 sq. ft. $96
2018-08-16 Single Family Traditional 978 Chamboard Lane Houston, TX 77018 $549,999 2,231 sq. ft. 7,841 sq. ft. $247
2018-08-16 Single Family Traditional 1302 Curtin Street Houston, TX 77018 $645,000 2,094 sq. ft. 7,405 sq. ft. $308
2018-08-16 Single Family Traditional 1754 Du Barry Lane Houston, TX 77018 $334,800 1,440 sq. ft. 6,534 sq. ft. $232
2018-08-16 Single Family Traditional 17023 Mariners Bay Drive Houston, TX 77095 $355,000 3,788 sq. ft. 8,712 sq. ft. $94
2018-08-16 Single Family Ranch 7431 Gailey Lane Houston, TX 77040 $249,000 2,159 sq. ft. 20,909 sq. ft. $115
2018-08-16 Single Family Traditional 1531 Ridgebriar Drive Houston, TX 77014 $160,000 2,288 sq. ft. 5,227 sq. ft. $70
2018-08-16 Single Family Traditional 17902 Stoney Glade Court Houston, TX 77095 $229,900 2,228 sq. ft. 6,970 sq. ft. $103
2018-08-16 Single Family Ranch 10206 Ivyridge Road Houston, TX 77043 $349,900 1,925 sq. ft. 10,019 sq. ft. $182
2018-08-16 Single Family Traditional 15622 Four Leaf Drive Houston, TX 77084 $224,900 3,000 sq. ft. 10,019 sq. ft. $75
2018-08-16 Single Family Traditional 16735 Carrollton Creek Lane Houston, TX 77084 $189,900 2,369 sq. ft. 5,663 sq. ft. $80
2018-08-16 Single Family Ranch 12243 Fetlock Drive Houston, TX 77065 $187,000 1,748 sq. ft. 6,970 sq. ft. $107
2018-08-16 Single Family Traditional 9438 Barretts Glen Court Houston, TX 77065 $235,000 2,152 sq. ft. 6,970 sq. ft. $109
2018-08-16 Single Family Traditional 17722 Quiet Dawn Court Houston, TX 77095 $244,000 2,350 sq. ft. 12,197 sq. ft. $104
2018-08-16 Single Family Traditional 4762 Whispering Falls Drive Houston, TX 77084 $184,900 1,948 sq. ft. 6,970 sq. ft. $95
2018-08-16 Single Family Traditional 15402 Autumn Sky Court Houston, TX 77095 $274,900 2,854 sq. ft. 13,939 sq. ft. $96
2018-08-16 Single Family Traditional 2702 Redwing Grove Way Houston, TX 77038 $248,634 2,908 sq. ft. 4,792 sq. ft. $86
2018-08-16 Single Family Traditional 11130 Hillside Glen Trail Houston, TX 77065 $249,900 2,575 sq. ft. 7,405 sq. ft. $97
2018-08-16 Single Family Traditional 9603 Mammoth Springs Court Houston, TX 77095 $250,000 3,059 sq. ft. 9,148 sq. ft. $82
2018-08-16 Single Family Traditional 1006 Lamonte Lane Houston, TX 77018 $529,900 2,141 sq. ft. 6,970 sq. ft. $248
2018-08-16 Single Family Traditional 13323 Misty Mill Drive Houston, TX 77041 $207,000 2,108 sq. ft. 6,098 sq. ft. $98
2018-08-16 Single Family Traditional 15814 Oak Mountain Drive Houston, TX 77095 $175,000 1,745 sq. ft. 7,405 sq. ft. $100
2018-08-16 Single Family Traditional 6312 Glenhagen Drive Houston, TX 77084 $114,900 846 sq. ft. 4,356 sq. ft. $136
2018-08-16 Single Family Traditional 1379 Bullock Lane Houston, TX 77055 $387,200 2,211 sq. ft. 5,227 sq. ft. $175
2018-08-16 Single Family Traditional 1154 Chamboard Lane Houston, TX 77018 $415,000 1,467 sq. ft. 7,405 sq. ft. $283
2018-08-16 Single Family Traditional 2643 Dylans Crossing Drive Houston, TX 77038 $155,000 1,676 sq. ft. 5,663 sq. ft. $92
2018-08-16 Single Family Traditional 14703 Myrtle Point Drive Houston, TX 77069 $195,000 1,824 sq. ft. 4,356 sq. ft. $107
2018-08-16 Single Family Traditional 9307 Bauer Vista Drive Houston, TX 77080 $339,990 2,258 sq. ft. $151
2018-08-16 Single Family Traditional 15707 Echo Lodge Drive Houston, TX 77095 $315,000 3,848 sq. ft. 6,970 sq. ft. $82
2018-08-16 Single Family Traditional 5702 Painted Trail Drive Houston, TX 77084 $210,000 2,733 sq. ft. 6,534 sq. ft. $77
2018-08-16 Single Family Traditional 4426 Windmill Run Drive Houston, TX 77069 $226,460 1,689 sq. ft. 4,356 sq. ft. $134
2018-08-16 Single Family Traditional 8810 Carousel Lane Houston, TX 77080 $255,000 2,024 sq. ft. 17,424 sq. ft. $126
2018-08-16 Single Family Traditional 64 Champion Villa Drive Houston, TX 77069 $299,900 2,711 sq. ft. 4,356 sq. ft. $111
2018-08-16 Single Family Traditional 6714 Sharpstone Creek Lane Houston, TX 77084 $189,000 1,677 sq. ft. 3,049 sq. ft. $113
2018-08-16 Single Family Contemporary/Modern; Traditional 10227 Eddystone Drive Houston, TX 77043 $320,000 1,436 sq. ft. 9,583 sq. ft. $223
2018-08-16 Single Family Traditional 7814 Timberline Run Lane Houston, TX 77095 $240,000 2,300 sq. ft. 8,276 sq. ft. $104
2018-08-16 Single Family Traditional 12007 Ensenada Canyon Lane Houston, TX 77041 $445,000 3,079 sq. ft. 9,148 sq. ft. $145
2018-08-16 Single Family Traditional 13415 Jessica Lane Houston, TX 77069 $325,000 3,300 sq. ft. 8,712 sq. ft. $98
2018-08-16 Single Family Traditional 9703 Territory Lane Houston, TX 77064 $215,000 2,376 sq. ft. 6,970 sq. ft. $90
2018-08-16 Single Family Contemporary/Modern 11511 Pinole Lane Court Houston, TX 77066 $219,000 2,278 sq. ft. 8,276 sq. ft. $96
2018-08-16 Single Family Traditional 10223 Wildwood Park Lane Houston, TX 77070 $221,500 2,076 sq. ft. 6,970 sq. ft. $107
2018-08-16 Single Family Traditional 14922 Shady Bend Drive Houston, TX 77070 $194,900 2,123 sq. ft. 7,405 sq. ft. $92
2018-08-16 Single Family Traditional 9910 Crescent Moon Drive Houston, TX 77064 $167,500 1,695 sq. ft. 6,970 sq. ft. $99
2018-08-15 Single Family Traditional 6510 Warfield Lane Houston, TX 77084 $175,000 1,750 sq. ft. 5,227 sq. ft. $100
2018-08-15 Single Family Traditional 9222 Hammerly Boulevard Houston, TX 77080 $595,000 2,981 sq. ft. 26,136 sq. ft. $200
2018-08-15 Single Family Contemporary/Modern; Traditional 7806 Cathedral Grove Lane Houston, TX 77040 $190,000 2,626 sq. ft. 7,841 sq. ft. $72
2018-08-15 Single Family Traditional 6711 Emerald Shire Lane Houston, TX 77041 $310,900 3,636 sq. ft. 8,712 sq. ft. $86
2018-08-15 Single Family Traditional 16906 Bird Creek Drive Houston, TX 77084 $224,900 3,120 sq. ft. 5,227 sq. ft. $72
2018-08-15 Single Family Traditional 12903 Echo Landing Drive Houston, TX 77070 $210,000 2,155 sq. ft. 5,227 sq. ft. $97
2018-08-15 Single Family Traditional 16718 Coyotillo Lane Houston, TX 77095 $297,000 3,417 sq. ft. 7,841 sq. ft. $87
2018-08-15 Single Family Traditional 4502 Belle Glade Drive Houston, TX 77018 $755,000 3,305 sq. ft. 10,019 sq. ft. $228
2018-08-15 Single Family Traditional 1910 Hollister Tree Crossing Houston, TX 77080 $359,900 2,156 sq. ft. 1,742 sq. ft. $167
2018-08-15 Single Family Traditional 5715 Fairview Forest Drive Houston, TX 77088 $150,000 1,762 sq. ft. 6,534 sq. ft. $85
2018-08-15 Single Family Ranch 1639 Crestdale Drive Houston, TX 77080 $260,000 1,754 sq. ft. 10,890 sq. ft. $148
2018-08-15 Single Family Traditional 16315 Mccormick Drive Houston, TX 77095 $235,500 2,316 sq. ft. 5,663 sq. ft. $102
2018-08-15 Single Family Traditional 963 Judiway Street Houston, TX 77018 $785,000 1,060 sq. ft. 20,038 sq. ft. $741
2018-08-15 Single Family Traditional 7622 Western Oak Lane Houston, TX 77040 $155,000 1,108 sq. ft. 6,534 sq. ft. $140
2018-08-15 Single Family Traditional 14910 Bridle Bend Drive Houston, TX 77084 $112,000 2,095 sq. ft. 6,534 sq. ft. $53
2018-08-15 Single Family Traditional 9503 Hanus Circle Houston, TX 77040 $137,000 1,365 sq. ft. 6,970 sq. ft. $100
2018-08-15 Single Family Traditional 12526 Brentleywood Lane Houston, TX 77070 $205,000 1,627 sq. ft. 6,098 sq. ft. $126
2018-08-15 Single Family Traditional 7939 Redland Woods Drive Houston, TX 77040 $265,000 2,721 sq. ft. 7,405 sq. ft. $97
2018-08-15 Single Family Traditional 9530 Emnora Lane Houston, TX 77080 $229,000 1,506 sq. ft. 7,841 sq. ft. $152
2018-08-15 Single Family Ranch 9106 Western Drive Houston, TX 77080 $279,900 1,771 sq. ft. 11,326 sq. ft. $158
2018-08-15 Single Family Traditional 7410 Broken Ridge Drive Houston, TX 77095 $259,777 2,976 sq. ft. 7,405 sq. ft. $87
2018-08-15 Single Family Ranch 18819 Appletree Hill Lane Houston, TX 77084 $179,900 1,828 sq. ft. 6,534 sq. ft. $98
2018-08-15 Single Family Mediterranean 7708 Hunters Creekway Drive Houston, TX 77055 $749,000 3,824 sq. ft. 2,614 sq. ft. $196
2018-08-15 Single Family Traditional 19627 Heritage Elm Court Houston, TX 77084 $215,000 2,330 sq. ft. 7,405 sq. ft. $92
2018-08-15 Single Family Traditional 8415 Mainbluff Lane Houston, TX 77040 $179,900 1,780 sq. ft. 5,663 sq. ft. $101
2018-08-15 Single Family Traditional 1138 Stonecrest Drive Houston, TX 77018 $397,000 2,208 sq. ft. 6,970 sq. ft. $180
2018-08-15 Single Family Traditional 6538 Carly Park Way Houston, TX 77084 $166,500 1,538 sq. ft. 5,227 sq. ft. $108
2018-08-15 Single Family Traditional 17611 Chicory Drive Houston, TX 77084 $190,000 1,876 sq. ft. 6,970 sq. ft. $101
2018-08-15 Single Family Traditional 18014 River Sage Drive Houston, TX 77084 $191,520 2,016 sq. ft. 8,276 sq. ft. $95
2018-08-15 Single Family Traditional 1842 Commons Meadow Lane Houston, TX 77080 $327,995 1,855 sq. ft. $177
2018-08-15 Single Family Traditional 7726 Club Lake Drive Houston, TX 77095 $267,000 2,784 sq. ft. 10,454 sq. ft. $96
2018-08-15 Single Family Ranch; Traditional 9753 Westview Drive Houston, TX 77055 $269,500 1,882 sq. ft. 8,276 sq. ft. $143
2018-08-15 Single Family Ranch; Traditional 8907 Echo Valley Drive Houston, TX 77055 $474,900 2,028 sq. ft. 10,019 sq. ft. $234
2018-08-15 Single Family Traditional 4411 Belle Hollow Drive Houston, TX 77084 $214,900 3,211 sq. ft. 8,712 sq. ft. $67
2018-08-15 Single Family Traditional 2702 Mossy Log Court Houston, TX 77084 $347,000 3,814 sq. ft. 10,454 sq. ft. $91
2018-08-15 Single Family Traditional 3805 Ella Boulevard Houston, TX 77018 $220,000 1,210 sq. ft. 7,405 sq. ft. $182
2018-08-15 Single Family Contemporary/Modern 10718 Addicks Oaks Place Houston, TX 77043 $354,995 2,294 sq. ft. 2,178 sq. ft. $155
2018-08-15 Single Family Traditional 1236 Bland Street Houston, TX 77091 $245,000 1,500 sq. ft. 43,124 sq. ft. $163
2018-08-15 Single Family Traditional 15618 Fox Springs Drive Houston, TX 77084 $174,500 1,878 sq. ft. 6,534 sq. ft. $93
2018-08-15 Single Family Traditional 19419 Wood Village Lane Houston, TX 77084 $149,000 1,626 sq. ft. 7,841 sq. ft. $92
2018-08-14 Single Family Traditional 19418 Franz Road Houston, TX 77084 $119,900 1,715 sq. ft. 6,534 sq. ft. $70
2018-08-14 Single Family Ranch 16826 Glamis Lane Houston, TX 77084 $149,750 1,520 sq. ft. 7,405 sq. ft. $99
2018-08-14 Single Family Traditional 11226 Mayfield Road Houston, TX 77043 $309,900 2,051 sq. ft. 9,148 sq. ft. $151
2018-08-14 Single Family Traditional 17303 Haley Falls Lane Houston, TX 77095 $199,000 1,849 sq. ft. 7,841 sq. ft. $108
2018-08-14 Single Family Ranch 2751 Manila Lane Houston, TX 77043 $410,000 2,055 sq. ft. 7,841 sq. ft. $200
2018-08-14 Single Family Traditional 6434 Teluco Street Houston, TX 77055 $325,000 1,400 sq. ft. 10,019 sq. ft. $232
2018-08-14 Single Family Ranch; Traditional 2215 Chantilly Lane Houston, TX 77018 $329,000 1,050 sq. ft. 6,970 sq. ft. $313
2018-08-14 Single Family Traditional 10903 Tobar Falls Circle Houston, TX 77064 $185,000 1,730 sq. ft. 3,920 sq. ft. $107
2018-08-14 Single Family Traditional 11714 Fallwood Drive Houston, TX 77065 $120,000 2,002 sq. ft. 8,712 sq. ft. $60
2018-08-14 Single Family Traditional 9349 Rosstown Way Houston, TX 77080 $309,900 1,680 sq. ft. 13,504 sq. ft. $184
2018-08-14 Single Family Traditional 4506 Pine Hollow Trace Houston, TX 77084 $350,000 3,559 sq. ft. 7,405 sq. ft. $98
2018-08-14 Single Family Traditional 1322 Cherry Spring Drive Houston, TX 77038 $125,000 1,424 sq. ft. 7,841 sq. ft. $88
2018-08-14 Single Family Traditional 7914 Sinfonia Drive Houston, TX 77040 $239,900 1,587 sq. ft. 6,098 sq. ft. $151
2018-08-14 Single Family Traditional 5514 Fragrant Cloud Houston, TX 77041 $549,700 4,638 sq. ft. 9,583 sq. ft. $119
2018-08-14 Single Family Contemporary/Modern 4710 Blueberry Hill Drive Houston, TX 77084 $189,000 1,811 sq. ft. 6,970 sq. ft. $104
2018-08-14 Single Family Traditional 5114 De Lange Lane Houston, TX 77092 $245,000 1,331 sq. ft. 6,970 sq. ft. $184
2018-08-14 Single Family Traditional 11110 Heron Village Drive Houston, TX 77064 $209,900 2,012 sq. ft. 5,663 sq. ft. $104
2018-08-14 Single Family Traditional 7511 Shangrila Lane Houston, TX 77095 $174,900 2,496 sq. ft. 7,841 sq. ft. $70
2018-08-14 Single Family Traditional 4607 Windmill Run Drive Houston, TX 77069 $235,170 2,458 sq. ft. 4,792 sq. ft. $96
2018-08-14 Single Family Ranch 11351 Lovebird Lane Houston, TX 77067 $170,000 2,153 sq. ft. 6,534 sq. ft. $79
2018-08-14 Single Family Contemporary/Modern 7934 Battlepine Drive Houston, TX 77040 $175,000 1,310 sq. ft. 7,405 sq. ft. $134
2018-08-14 Single Family Traditional 11013 Clover Hollow Houston, TX 77043 $369,999 2,210 sq. ft. $167
2018-08-14 Single Family Contemporary/Modern; Traditional 1523 Aldana Place Houston, TX 77055 $652,823 2,786 sq. ft. $234
2018-08-14 Single Family Contemporary/Modern; Traditional 1519 Aldana Place Houston, TX 77055 $652,971 2,901 sq. ft. $225
2018-08-14 Single Family Contemporary/Modern; Traditional 1515 Aldana Place Houston, TX 77055 $652,259 2,901 sq. ft. $225
2018-08-14 Single Family Contemporary/Modern 3303 Aspen Bend Drive Houston, TX 77068 $257,000 3,134 sq. ft. 9,148 sq. ft. $82
2018-08-14 Single Family Contemporary/Modern 8723 Strongoak Lane Houston, TX 77055 $526,990 2,299 sq. ft. 2,614 sq. ft. $229
2018-08-14 Single Family Traditional 11918 Cedarcliff Drive Houston, TX 77070 $189,000 2,173 sq. ft. 9,583 sq. ft. $87
2018-08-14 Single Family Contemporary/Modern 8305 Ginger Oak Street Houston, TX 77055 $550,000 2,174 sq. ft. $253
2018-08-14 Single Family Traditional 1508 Campbell Road Houston, TX 77055 $327,500 1,927 sq. ft. 1,307 sq. ft. $170
2018-08-14 Single Family Contemporary/Modern 12135 Canyon Arbor Way Houston, TX 77095 $299,900 2,928 sq. ft. 9,148 sq. ft. $102
2018-08-14 Single Family Traditional 12822 Fox Arrow Lane Houston, TX 77041 $243,333 2,245 sq. ft. 6,098 sq. ft. $108
2018-08-14 Single Family Traditional 2302 Colwell Road Houston, TX 77068 $179,900 2,564 sq. ft. 32,234 sq. ft. $70
2018-08-14 Single Family Traditional 9434 Shadow Gate Lane Houston, TX 77040 $285,000 2,143 sq. ft. 7,841 sq. ft. $133
2018-08-14 Single Family Traditional 5907 Fort Sumter Lane Houston, TX 77084 $235,000 2,610 sq. ft. 6,970 sq. ft. $90
2018-08-13 Single Family Traditional 910 Gardenia Drive Houston, TX 77018 $349,000 1,108 sq. ft. 6,534 sq. ft. $315
2018-08-13 Single Family Traditional 12226 Fetlock Drive Houston, TX 77065 $165,000 1,490 sq. ft. 6,098 sq. ft. $111
2018-08-13 Single Family Traditional 11011 Clover Hollow Lane Houston, TX 77043 $369,999 2,399 sq. ft. $154
2018-08-13 Single Family Contemporary/Modern; Ranch; Traditional 11910 Advance Drive Houston, TX 77065 $329,950 3,608 sq. ft. 47,045 sq. ft. $91
2018-08-13 Single Family Traditional 7606 Kellwood Houston, TX 77040 $159,000 1,254 sq. ft. 9,148 sq. ft. $127
2018-08-13 Single Family Traditional 13739 Repa Lane Houston, TX 77014 $159,000 1,500 sq. ft. 4,356 sq. ft. $106
2018-08-13 Single Family Traditional 4327 Kevinkay Drive Houston, TX 77084 $150,000 1,477 sq. ft. 5,663 sq. ft. $102
2018-08-13 Single Family Ranch 1312 Zora Street Houston, TX 77055 $375,000 1,461 sq. ft. 7,405 sq. ft. $257
2018-08-13 Single Family Contemporary/Modern; Traditional 10006 Waving Grain Lane Houston, TX 77080 $336,995 1,942 sq. ft. 2,178 sq. ft. $174
2018-08-13 Single Family Ranch 5714 Libbey Lane Houston, TX 77092 $374,900 1,797 sq. ft. 7,405 sq. ft. $209
2018-08-13 Single Family Traditional 17616 Mossforest Drive Houston, TX 77090 $375,000 1,995 sq. ft. 13,939 sq. ft. $188
2018-08-13 Single Family Traditional 7527 Janal Street Houston, TX 77055 $255,000 1,607 sq. ft. 8,712 sq. ft. $159
2018-08-13 Single Family Traditional 5907 Lookout Mountain Drive Houston, TX 77069 $182,600 2,335 sq. ft. 12,632 sq. ft. $78
2018-08-13 Single Family Ranch 11127 Thunderhaven Drive Houston, TX 77064 $135,000 1,150 sq. ft. 4,792 sq. ft. $117
2018-08-13 Single Family Ranch; Traditional 4118 Bethel Boulevard Houston, TX 77092 $269,900 1,984 sq. ft. 7,405 sq. ft. $136
2018-08-13 Single Family Traditional 9851 Mountain Chestnut Road Houston, TX 77070 $288,995 2,910 sq. ft. $99
2018-08-13 Single Family Traditional 7518 Marble Glen Lane Houston, TX 77095 $210,500 1,930 sq. ft. 9,148 sq. ft. $109
2018-08-13 Single Family Traditional 9914 Peachridge Drive Houston, TX 77070 $115,000 1,164 sq. ft. 9,148 sq. ft. $99
2018-08-13 Single Family Traditional 9919 Windriver Drive Houston, TX 77070 $200,000 2,107 sq. ft. 8,276 sq. ft. $95
2018-08-13 Single Family Traditional 15115 Possumwood Drive Houston, TX 77084 $139,000 1,462 sq. ft. 5,227 sq. ft. $95
2018-08-13 Single Family Ranch; Traditional 9219 Olathe Street Houston, TX 77055 $589,000 2,941 sq. ft. 12,197 sq. ft. $200
2018-08-13 Single Family Other Style 11819 Sawmill Stream Circle Houston, TX 77067 $142,500 1,700 sq. ft. 8,276 sq. ft. $84
2018-08-13 Single Family Traditional 6652 Camptown Circle Houston, TX 77069 $254,500 2,149 sq. ft. 5,227 sq. ft. $118
2018-08-13 Single Family Contemporary/Modern 5816 Gardendale Houston, TX 77092 $269,900 1,562 sq. ft. 1,742 sq. ft. $173
2018-08-13 Single Family Contemporary/Modern 5814 Gardendale Houston, TX 77092 $259,900 1,562 sq. ft. 1,742 sq. ft. $166
2018-08-13 Single Family Traditional 1750 Conrad Sauer Drive Houston, TX 77043 $225,000 8,712 sq. ft.
2018-08-13 Single Family Traditional 842 43rd Street Houston, TX 77018 $390,000 2,154 sq. ft. 12,632 sq. ft. $181
2018-08-13 Single Family Traditional 2615 Rosefield Drive Houston, TX 77080 $359,000 1,889 sq. ft. 8,712 sq. ft. $190
2018-08-13 Single Family Traditional 15906 Wilmington Park Lane Houston, TX 77084 $229,500 2,000 sq. ft. 6,534 sq. ft. $115
2018-08-13 Single Family Traditional 810 Frazer Lane Houston, TX 77038 $124,999 1,244 sq. ft. 6,970 sq. ft. $100
2018-08-13 Single Family Split Level 5723 Fairview Forest Drive Houston, TX 77088 $154,000 2,070 sq. ft. 7,405 sq. ft. $74
2018-08-13 Single Family Traditional 19010 Piney Forest Court Houston, TX 77084 $259,990 2,888 sq. ft. 7,841 sq. ft. $90
2018-08-12 Single Family Other Style; Traditional 11017 Sherwood Grove Houston, TX 77043 $417,450 3,025 sq. ft. 2,178 sq. ft. $138
2018-08-12 Single Family Other Style 7154 Woodland West Drive Houston, TX 77040 $149,000 1,275 sq. ft. 6,534 sq. ft. $117
2018-08-12 Single Family Contemporary/Modern; Mediterranean 8903 Mauna Loa Lane Houston, TX 77040 $319,000 2,920 sq. ft. 9,583 sq. ft. $109
2018-08-12 Single Family Traditional 6427 Hidden Arbor Lane Houston, TX 77088 $140,000 1,522 sq. ft. 6,534 sq. ft. $92
2018-08-12 Single Family Traditional 3706 Oyster Tree Drive Houston, TX 77084 $229,000 3,363 sq. ft. 6,970 sq. ft. $68
2018-08-12 Single Family Contemporary/Modern 11411 Pecan Creek Drive Houston, TX 77043 $365,000 2,641 sq. ft. 9,148 sq. ft. $138
2018-08-12 Single Family Traditional 11643 Breezy Knoll Drive Houston, TX 77064 $255,999 3,732 sq. ft. 7,405 sq. ft. $69
2018-08-12 Single Family Traditional 16335 Hillside Garden Lane Houston, TX 77084 $277,000 3,140 sq. ft. 6,098 sq. ft. $88
2018-08-11 Single Family Traditional 14806 Chetland Place Drive Houston, TX 77095 $210,000 2,490 sq. ft. 8,276 sq. ft. $84
2018-08-11 Single Family Contemporary/Modern 8735 Roaring Point Drive Houston, TX 77088 $155,000 1,890 sq. ft. 4,792 sq. ft. $82
2018-08-11 Single Family Traditional 5 Champions Colony Drive Houston, TX 77069 $158,000 1,653 sq. ft. $96
2018-08-11 Single Family Traditional 1010 Progreso Drive Houston, TX 77038 $139,000 2,880 sq. ft. 6,098 sq. ft. $48
2018-08-11 Single Family Traditional 2327 Carleen Road Houston, TX 77018 $455,000 2,289 sq. ft. 7,841 sq. ft. $199
2018-08-11 Single Family Other Style 6102 Autumn Forest Drive Houston, TX 77092 $325,000 2,235 sq. ft. 8,276 sq. ft. $145
2018-08-11 Single Family Traditional 910 Rainy River Drive Houston, TX 77088 $154,900 1,429 sq. ft. 8,712 sq. ft. $108
2018-08-11 Single Family Traditional 3346 Tenaha Drive Houston, TX 77014 $164,900 1,898 sq. ft. 4,356 sq. ft. $87
2018-08-11 Single Family Traditional 5723 Georgetown Colony Drive Houston, TX 77084 $184,900 2,131 sq. ft. 9,148 sq. ft. $87
2018-08-11 Single Family Traditional 17331 Rolling Creek Drive Houston, TX 77090 $229,500 3,106 sq. ft. 10,890 sq. ft. $74
2018-08-11 Single Family Traditional 4111 Tasselwood Lane Houston, TX 77014 $165,000 1,871 sq. ft. 7,841 sq. ft. $88
2018-08-11 Single Family Traditional 8414 Argentina Street Houston, TX 77040 $245,000 2,152 sq. ft. 13,504 sq. ft. $114
2018-08-11 Single Family Traditional 8123 Summer Trail Drive Houston, TX 77040 $140,000 1,498 sq. ft. 6,098 sq. ft. $93
2018-08-11 Single Family Traditional 3809 Ella Boulevard Houston, TX 77018 $399,900 1,750 sq. ft. 7,405 sq. ft. $229
2018-08-11 Single Family Traditional 5122 Pine Cliff Drive Houston, TX 77084 $195,000 2,447 sq. ft. 6,970 sq. ft. $80
2018-08-11 Single Family French 3306 Amber Forest Drive Houston, TX 77068 $285,000 3,961 sq. ft. 8,712 sq. ft. $72
2018-08-11 Single Family Mediterranean; Traditional 1443 Springrock Lane Houston, TX 77055 $475,000 3,060 sq. ft. 3,485 sq. ft. $155
2018-08-11 Single Family Traditional 2134 Mosher Lane Houston, TX 77088 $149,900 1,528 sq. ft. 6,970 sq. ft. $98
2018-08-11 Single Family Traditional 1502 Wilde Rock Way Houston, TX 77018 $350,000 1,128 sq. ft. 6,970 sq. ft. $310
2018-08-10 Single Family Traditional 11511 Ridge Run Drive Houston, TX 77064 $175,000 1,712 sq. ft. 7,405 sq. ft. $102
2018-08-10 Single Family Traditional 16803 Creeksouth Road Houston, TX 77068 $189,500 1,916 sq. ft. 33,106 sq. ft. $99
2018-08-10 Single Family Traditional 8514 Gander Bayshore Lane Houston, TX 77040 $195,000 2,258 sq. ft. 5,227 sq. ft. $86
2018-08-10 Single Family Traditional 4126 Rosebank Drive Houston, TX 77084 $276,000 3,596 sq. ft. 6,534 sq. ft. $77
2018-08-10 Single Family Traditional 3114 Canyon Oak Court Houston, TX 77068 $265,000 2,374 sq. ft. 6,970 sq. ft. $112
2018-08-10 Single Family Traditional 3531 Saint William Lane Houston, TX 77084 $195,000 2,194 sq. ft. 7,841 sq. ft. $89
2018-08-10 Single Family Traditional 12211 Summerland Ridge Lane Houston, TX 77041 $435,000 3,160 sq. ft. 8,712 sq. ft. $138
2018-08-10 Single Family Traditional 5114 Spanish Oak Drive Houston, TX 77066 $245,000 2,816 sq. ft. 9,148 sq. ft. $87
2018-08-10 Single Family Traditional 6004 Post Oak Green Lane Houston, TX 77055 $475,900 2,775 sq. ft. 1,742 sq. ft. $172
2018-08-10 Single Family Traditional 7926 Hickory Mill Court Houston, TX 77095 $316,900 3,146 sq. ft. 9,148 sq. ft. $101
2018-08-10 Single Family Traditional 1507 Grand Valley Drive Houston, TX 77090 $133,000 2,834 sq. ft. 9,148 sq. ft. $47
2018-08-10 Single Family French; Traditional 2810 Old Pecan Grove Lane Houston, TX 77092 $639,000 2,782 sq. ft. 6,098 sq. ft. $230
2018-08-10 Single Family Traditional 7120 Breen Drive Houston, TX 77086 $800,000 2,650 sq. ft. 43,560 sq. ft. $302
2018-08-10 Single Family Traditional 1962 Bingle Road Houston, TX 77055 $499,000 1,108 sq. ft. 8,276 sq. ft. $450
2018-08-10 Single Family Traditional 1906 Latexo Drive Houston, TX 77018 $395,000 1,487 sq. ft. 9,583 sq. ft. $266
2018-08-10 Single Family Traditional 12027 Ensenada Canyon Lane Houston, TX 77041 $385,000 2,596 sq. ft. 7,841 sq. ft. $148
2018-08-10 Single Family Ranch 2702 Morningview Drive Houston, TX 77080 $308,000 1,517 sq. ft. 13,504 sq. ft. $203
2018-08-10 Single Family Traditional 14702 Oaks Crossing Lane Houston, TX 77070 $285,000 3,661 sq. ft. 7,841 sq. ft. $78
2018-08-10 Single Family Traditional 3303 Deeds Road Houston, TX 77084 $249,500 2,636 sq. ft. 6,970 sq. ft. $95
2018-08-10 Single Family Traditional 6907 Poncha Springs Court Houston, TX 77040 $215,000 2,304 sq. ft. 9,148 sq. ft. $93
2018-08-10 Single Family Traditional 4710 Tain Drive Houston, TX 77084 $175,000 1,880 sq. ft. 9,583 sq. ft. $93
2018-08-10 Single Family Traditional 6031 Darkwood Drive Houston, TX 77088 $199,500 2,279 sq. ft. 9,148 sq. ft. $88
2018-08-10 Single Family Traditional 1706 Saxon Drive Houston, TX 77018 $915,000 4,294 sq. ft. 7,405 sq. ft. $213
2018-08-10 Single Family French; Traditional 1537 Chippendale Road Houston, TX 77018 $1,189,000 4,307 sq. ft. 8,276 sq. ft. $276
2018-08-10 Single Family Traditional 10922 Cannes Memorial Drive Houston, TX 77043 $365,230 2,618 sq. ft. 2,178 sq. ft. $140
2018-08-10 Single Family Traditional 16815 Newlight Bend Drive Houston, TX 77095 $249,000 2,314 sq. ft. 6,970 sq. ft. $108
2018-08-10 Single Family Contemporary/Modern 10319 Summerhill Drive Houston, TX 77070 $210,000 2,275 sq. ft. 8,712 sq. ft. $92
2018-08-10 Single Family Traditional 2018 Marnel Road Houston, TX 77055 $795,000 3,637 sq. ft. 8,276 sq. ft. $219
2018-08-10 Single Family Contemporary/Modern 8326 Ginger Oak Street Houston, TX 77055 $500,000 2,174 sq. ft. $230
2018-08-10 Single Family Ranch; Traditional 2322 Hialeah Drive Houston, TX 77018 $318,500 1,465 sq. ft. 7,405 sq. ft. $217
2018-08-10 Single Family Traditional 11226 Timberline Road Houston, TX 77043 $370,000 2,520 sq. ft. 8,712 sq. ft. $147
2018-08-10 Single Family Traditional 5806 Libbey Houston, TX 77092 $270,000 1,325 sq. ft. 7,841 sq. ft. $204
2018-08-10 Single Family Traditional 6307 Wintersage Lane Houston, TX 77066 $249,900 2,590 sq. ft. 5,227 sq. ft. $96
2018-08-10 Single Family Traditional 8138 Sweetgum Trace Drive Houston, TX 77040 $133,000 1,420 sq. ft. 6,098 sq. ft. $94
2018-08-10 Single Family Traditional 7022 Lawler Ridge Houston, TX 77055 $589,000 2,651 sq. ft. 5,227 sq. ft. $222
2018-08-10 Single Family Traditional 1713 Waterbury Way Houston, TX 77055 $575,000 2,531 sq. ft. 2,178 sq. ft. $227
2018-08-10 Single Family Traditional 1725 Du Barry Lane Houston, TX 77018 $779,000 3,386 sq. ft. 7,841 sq. ft. $230
2018-08-10 Single Family Traditional 11751 Wickchester Lane Houston, TX 77043 $305,000 2,570 sq. ft. 6,534 sq. ft. $119
2018-08-10 Single Family Traditional 10920 Cannes Memorial Drive Houston, TX 77043 $301,990 1,501 sq. ft. 2,178 sq. ft. $201
2018-08-10 Single Family Traditional 5121 De Lange Lane Houston, TX 77092 $259,000 1,189 sq. ft. 6,970 sq. ft. $218
2018-08-10 Single Family Traditional 14318 Double Shoals Circle Houston, TX 77090 $243,500 3,750 sq. ft. 6,534 sq. ft. $65
2018-08-10 Single Family Traditional 14935 Lindenbrook Lane Houston, TX 77095 $229,900 2,715 sq. ft. 5,663 sq. ft. $85
2018-08-10 Single Family Traditional 4903 Trailing Clover Court Houston, TX 77084 $199,000 2,076 sq. ft. 7,405 sq. ft. $96
2018-08-10 Single Family Traditional 12831 Edgewood Park Drive Houston, TX 77038 $130,000 1,234 sq. ft. 5,663 sq. ft. $105
2018-08-10 Single Family Traditional 10918 Cannes Memorial Drive Houston, TX 77043 $330,570 1,834 sq. ft. 2,178 sq. ft. $180
2018-08-10 Single Family Traditional 10326 Buffalo Bend Drive Houston, TX 77064 $139,900 1,315 sq. ft. 4,356 sq. ft. $106
2018-08-10 Single Family Traditional 7017 Greenyard Drive Houston, TX 77086 $124,990 1,270 sq. ft. 4,356 sq. ft. $98
2018-08-10 Single Family Traditional 2522 Anniston Drive Houston, TX 77080 $324,900 2,262 sq. ft. 9,148 sq. ft. $144
2018-08-10 Single Family Traditional 10916 Cannes Memorial Drive Houston, TX 77043 $320,280 1,745 sq. ft. 2,178 sq. ft. $184
2018-08-10 Single Family Traditional 402 Sunnyside Street Houston, TX 77091 $172,000 1,089 sq. ft. 7,841 sq. ft. $158
2018-08-10 Single Family Contemporary/Modern; Traditional 10310 Ivyridge Road Houston, TX 77043 $349,000 1,504 sq. ft. 10,019 sq. ft. $232
2018-08-10 Single Family Traditional 4625 Chrystell Lane Houston, TX 77092 $289,000 1,131 sq. ft. 6,098 sq. ft. $256
2018-08-10 Single Family Traditional 7765 High Village Drive Drive Houston, TX 77095 $163,000 1,552 sq. ft. 4,356 sq. ft. $105
2018-08-10 Single Family Traditional 18511 Meadows Way Drive Houston, TX 77084 $175,000 1,348 sq. ft. 6,970 sq. ft. $130
2018-08-10 Single Family Traditional 14606 Sandy Creek Drive Houston, TX 77070 $495,000 4,336 sq. ft. 16,988 sq. ft. $114
2018-08-10 Single Family Traditional 5232 Sue Marie Lane Houston, TX 77091 $325,000 2,865 sq. ft. 21,780 sq. ft. $113
2018-08-10 Single Family Traditional 14002 Blazey Drive Houston, TX 77095 $220,000 2,359 sq. ft. 10,890 sq. ft. $93
2018-08-10 Single Family Traditional 16219 Southern Stone Drive Houston, TX 77095 $292,000 3,565 sq. ft. 8,276 sq. ft. $82
2018-08-10 Single Family Traditional 1928 Sherwood Forest Street Houston, TX 77043 $204,800 1,679 sq. ft. 6,098 sq. ft. $122
2018-08-10 Single Family Traditional 17323 Shadow Ledge Drive Houston, TX 77095 $199,000 1,812 sq. ft. 4,792 sq. ft. $110
2018-08-10 Single Family Traditional 14219 Torrey Vista Drive Houston, TX 77014 $235,000 3,492 sq. ft. 7,841 sq. ft. $67
2018-08-10 Single Family Traditional 1003 Misty Lea Lane Houston, TX 77090 $210,000 3,108 sq. ft. 13,504 sq. ft. $68
2018-08-09 Single Family Contemporary/Modern 5907 Coral Ridge Road Houston, TX 77069 $349,000 2,706 sq. ft. 11,326 sq. ft. $129
2018-08-09 Single Family Contemporary/Modern; Traditional 12026 Cypresswood Drive Houston, TX 77070 $349,000 3,968 sq. ft. 10,019 sq. ft. $88
2018-08-09 Single Family Traditional 8207 Pine Falls Drive Houston, TX 77095 $198,000 2,083 sq. ft. 7,841 sq. ft. $95
2018-08-09 Single Family Traditional 1474 Sue Barnett Drive Houston, TX 77018 $435,000 1,212 sq. ft. 9,583 sq. ft. $359
2018-08-09 Single Family Traditional 819 43rd Street Houston, TX 77018 $349,900 1,788 sq. ft. 12,197 sq. ft. $196
2018-08-09 Single Family Traditional 16310 Charterstone Drive Houston, TX 77070 $159,800 1,510 sq. ft. 7,841 sq. ft. $106
2018-08-09 Single Family Traditional 17210 Sheffield Bend Drive Houston, TX 77095 $215,000 2,302 sq. ft. 6,970 sq. ft. $93
2018-08-09 Single Family Traditional 13703 Pepper Knoll Drive Houston, TX 77065 $168,000 2,352 sq. ft. 6,970 sq. ft. $71
2018-08-09 Single Family Colonial; Traditional 11611 Knobcrest Drive Houston, TX 77070 $254,000 2,660 sq. ft. 10,019 sq. ft. $95
2018-08-09 Single Family Traditional 5318 Westerham Place Houston, TX 77069 $395,000 4,376 sq. ft. 13,504 sq. ft. $90
2018-08-09 Single Family Contemporary/Modern 11727 Gardenglen Drive Houston, TX 77070 $229,000 2,783 sq. ft. 10,019 sq. ft. $82
2018-08-09 Single Family Traditional 13622 Treebank Lane Houston, TX 77070 $259,900 2,542 sq. ft. 10,890 sq. ft. $102
2018-08-09 Single Family Traditional 1922 Shadowdale Drive Houston, TX 77043 $259,000 1,918 sq. ft. 8,276 sq. ft. $135
2018-08-09 Single Family Traditional 19011 Appletree Hill Lane Houston, TX 77084 $183,900 2,006 sq. ft. 7,841 sq. ft. $92
2018-08-09 Single Family Contemporary/Modern; Traditional 8920 Terrace Pass Drive Houston, TX 77080 $328,960 1,829 sq. ft. $180
2018-08-09 Single Family Traditional 12539 Country Arbor Lane Houston, TX 77041 $325,000 3,560 sq. ft. 7,841 sq. ft. $91
2018-08-09 Single Family Traditional 17824 Ridge Top Drive Houston, TX 77090 $190,000 3,428 sq. ft. 22,651 sq. ft. $55
2018-08-09 Single Family Ranch 10334 Emerald Trail Drive Houston, TX 77070 $200,000 1,767 sq. ft. 3,920 sq. ft. $113
2018-08-09 Single Family Traditional 13411 Hedgley Place Houston, TX 77069 $229,500 2,728 sq. ft. 12,197 sq. ft. $84
2018-08-09 Single Family Traditional 15215 Possumwood Drive Houston, TX 77084 $200,000 2,920 sq. ft. 5,663 sq. ft. $68
2018-08-09 Single Family Contemporary/Modern 1601 Pine Chase Drive Houston, TX 77055 $1,455,000 5,872 sq. ft. 9,148 sq. ft. $248
2018-08-09 Single Family Ranch 3921 Brookwoods Drive Houston, TX 77092 $450,000 1,696 sq. ft. 13,939 sq. ft. $265
2018-08-09 Single Family Contemporary/Modern 3925 Tulane Street Houston, TX 77018 $279,900 1,498 sq. ft. $187
2018-08-09 Single Family Contemporary/Modern 4003 Tulane Street Houston, TX 77018 $299,900 1,486 sq. ft. $202
2018-08-09 Single Family Traditional 10917 Cannes Memorial Houston, TX 77043 $297,910 1,831 sq. ft. 2,178 sq. ft. $163
2018-08-09 Single Family Traditional 4511 Windmill Run Drive Houston, TX 77069 $214,200 2,312 sq. ft. 3,920 sq. ft. $93
2018-08-09 Single Family Traditional 14023 Hillingdale Lane Houston, TX 77070 $209,900 2,443 sq. ft. 5,663 sq. ft. $86
2018-08-09 Single Family Ranch; Traditional 15406 Willow River Drive Houston, TX 77095 $195,000 1,837 sq. ft. 7,841 sq. ft. $106
2018-08-09 Single Family Traditional 9712 Kathi Ann Lane Houston, TX 77038 $158,900 1,505 sq. ft. 3,920 sq. ft. $106
2018-08-09 Single Family Traditional 4406 Windmill Run Drive Houston, TX 77069 $229,990 2,312 sq. ft. 3,920 sq. ft. $99
2018-08-09 Single Family Traditional 2322 Creekhickory Road Houston, TX 77068 $185,000 2,097 sq. ft. 25,265 sq. ft. $88
2018-08-09 Single Family Other Style 1733 Saxon Drive Houston, TX 77018 $779,000 3,297 sq. ft. 8,276 sq. ft. $236
2018-08-09 Single Family Traditional 13511 Pemberwick Park Lane Houston, TX 77070 $310,000 3,197 sq. ft. 9,148 sq. ft. $97
2018-08-09 Single Family Traditional 10503 Newpark Drive Houston, TX 77041 $226,700 1,764 sq. ft. 5,227 sq. ft. $129
2018-08-09 Single Family Traditional 44 Champions Bend Circle Houston, TX 77069 $489,000 4,186 sq. ft. 13,504 sq. ft. $117
2018-08-09 Single Family Ranch 12302 Advance Drive Houston, TX 77065 $165,000 1,820 sq. ft. 14,810 sq. ft. $91
2018-08-09 Single Family Contemporary/Modern; Split Level 10903 Upland Pass Drive Houston, TX 77043 $425,000 2,928 sq. ft. 2,178 sq. ft. $145
2018-08-09 Single Family Traditional 7207 Bayou Oaks Drive Houston, TX 77088 $235,000 2,620 sq. ft. 6,970 sq. ft. $90
2018-08-09 Single Family Traditional 17547 Waverly Grove Drive Houston, TX 77084 $160,000 1,728 sq. ft. 3,920 sq. ft. $93
2018-08-09 Single Family Traditional 9010 Elizabeth Road Houston, TX 77055 $2,275,000 6,101 sq. ft. 14,810 sq. ft. $373
2018-08-09 Single Family Traditional 5403 Kings Ransom Court Houston, TX 77041 $715,000 6,119 sq. ft. 13,504 sq. ft. $117
2018-08-09 Single Family Traditional 14826 Beechmoor Drive Houston, TX 77095 $210,000 1,788 sq. ft. 7,405 sq. ft. $117
2018-08-09 Single Family Ranch 5011 Treebark Lane Houston, TX 77018 $475,500 2,345 sq. ft. 10,019 sq. ft. $203
2018-08-09 Single Family Traditional 12451 Grossmount Drive Houston, TX 77066 $266,000 2,238 sq. ft. 5,663 sq. ft. $119
2018-08-09 Single Family Traditional 14715 Cedar Isle Drive Houston, TX 77084 $199,000 2,190 sq. ft. 6,098 sq. ft. $91
2018-08-09 Single Family Traditional 302 Truman Street Houston, TX 77018 $199,000 848 sq. ft. 4,356 sq. ft. $235
2018-08-09 Single Family Traditional 14227 Championship Lane Houston, TX 77069 $295,000 3,323 sq. ft. 9,583 sq. ft. $89
2018-08-09 Single Family Traditional 12003 Cedarcliff Ct Houston, TX 77070 $228,800 2,604 sq. ft. $88
2018-08-08 Single Family Traditional 8311 Bridgefoot Lane Houston, TX 77064 $165,000 1,878 sq. ft. 8,712 sq. ft. $88
2018-08-08 Single Family Traditional 15506 Miller House Lane Houston, TX 77086 $160,000 1,510 sq. ft. 4,792 sq. ft. $106
2018-08-08 Single Family Traditional 8819 Lawncliff Lane Houston, TX 77040 $175,000 1,604 sq. ft. 5,227 sq. ft. $109
2018-08-08 Single Family Traditional 9615 Weatherwood Drive Houston, TX 77080 $250,000 1,264 sq. ft. 6,970 sq. ft. $198
2018-08-08 Single Family Colonial; Traditional 1802 Castlerock Drive Houston, TX 77090 $1,050,000 14,521 sq. ft. 49,658 sq. ft. $72
2018-08-08 Single Family Traditional 3106 Orchard Valley Court Houston, TX 77084 $289,000 3,212 sq. ft. 8,276 sq. ft. $90
2018-08-08 Single Family Traditional 4150 Surreydon Drive Houston, TX 77014 $185,000 2,899 sq. ft. 6,970 sq. ft. $64
2018-08-08 Single Family Traditional 16522 Oat Mill Drive Houston, TX 77095 $207,775 2,272 sq. ft. 6,534 sq. ft. $91
2018-08-08 Single Family Traditional 2534 Palo Pinto Drive Houston, TX 77080 $379,990 2,445 sq. ft. 7,841 sq. ft. $155
2018-08-08 Single Family Traditional 846 43rd Street Houston, TX 77018 $375,000 1,692 sq. ft. 11,761 sq. ft. $222
2018-08-08 Single Family Traditional 971 Althea Drive Houston, TX 77018 $799,900 3,244 sq. ft. 9,148 sq. ft. $247
2018-08-08 Single Family Traditional 7231 Tall Pines Drive Houston, TX 77088 $189,900 1,953 sq. ft. 8,712 sq. ft. $97
2018-08-08 Single Family Traditional 17219 Pleasant Lily Court Houston, TX 77084 $199,900 2,200 sq. ft. 5,227 sq. ft. $91
2018-08-08 Single Family Contemporary/Modern 13214 Mission Valley Drive Houston, TX 77069 $359,000 2,403 sq. ft. 13,939 sq. ft. $149
2018-08-08 Single Family Traditional 7323 Blenheim Palace Lane Houston, TX 77095 $234,000 2,613 sq. ft. 14,375 sq. ft. $90
2018-08-08 Single Family Traditional 4774 Green Trail Drive Houston, TX 77084 $210,000 1,795 sq. ft. 6,970 sq. ft. $117
2018-08-08 Single Family Traditional 4110 Marlborough Drive Houston, TX 77092 $360,000 1,887 sq. ft. 8,712 sq. ft. $191
2018-08-08 Single Family Traditional 10414 Cutting Horse Lane Houston, TX 77064 $249,900 2,588 sq. ft. 8,276 sq. ft. $97
2018-08-08 Single Family Traditional 2431 Colton Hollow Drive Houston, TX 77067 $139,900 1,454 sq. ft. 5,663 sq. ft. $96
2018-08-08 Single Family Traditional 1102 Ben Hur Drive Houston, TX 77055 $749,000 2,521 sq. ft. 10,890 sq. ft. $297
2018-08-08 Single Family Traditional 808 Paul Quinn Street Houston, TX 77091 $219,000 1,670 sq. ft. 5,227 sq. ft. $131
2018-08-08 Single Family Traditional 13347 Clayton Hill Drive Houston, TX 77041 $205,000 2,847 sq. ft. 6,534 sq. ft. $72
2018-08-08 Single Family Contemporary/Modern 15031 Pebble Bend Drive Houston, TX 77068 $195,000 2,578 sq. ft. 9,148 sq. ft. $76
2018-08-08 Single Family Contemporary/Modern 5855 Post Oak Lane Houston, TX 77055 $549,900 2,865 sq. ft. $192
2018-08-08 Single Family Mediterranean 1600 Wrenwood Lakes Houston, TX 77043 $420,000 2,885 sq. ft. 2,614 sq. ft. $146
2018-08-08 Single Family Traditional 1730 Ronson Road Houston, TX 77055 $495,000 2,012 sq. ft. 8,276 sq. ft. $246
2018-08-08 Single Family Traditional 53 Champion Villa Drive Houston, TX 77069 $405,000 3,985 sq. ft. 4,356 sq. ft. $102
2018-08-08 Single Family Mediterranean; Traditional 7706 Janak Drive Houston, TX 77055 $699,000 3,103 sq. ft. 3,920 sq. ft. $225
2018-08-08 Single Family Ranch 2411 Elmgate Drive Houston, TX 77080 $369,000 1,982 sq. ft. 7,841 sq. ft. $186
2018-08-08 Single Family Ranch; Traditional 10211 Pearl Drive Houston, TX 77064 $224,990 1,972 sq. ft. 7,841 sq. ft. $114
2018-08-08 Single Family Traditional 13418 Anderwoods Court Houston, TX 77070 $250,000 2,396 sq. ft. 8,276 sq. ft. $104
2018-08-08 Single Family Other Style 7419 Woodoak Drive Houston, TX 77040 $159,900 1,350 sq. ft. 7,405 sq. ft. $118
2018-08-08 Single Family Traditional 9607 Willowbridge Park Boulevard Houston, TX 77064 $340,000 3,303 sq. ft. 11,761 sq. ft. $103
2018-08-08 Single Family Traditional 15718 Misty Heath Lane Houston, TX 77084 $249,000 2,486 sq. ft. 8,276 sq. ft. $100
2018-08-08 Single Family Traditional 17318 Sparrow Way Court Houston, TX 77095 $209,900 2,390 sq. ft. 6,098 sq. ft. $88
2018-08-08 Single Family Traditional 15607 Four Season Drive Houston, TX 77084 $174,800 1,860 sq. ft. 7,405 sq. ft. $94
2018-08-08 Single Family Contemporary/Modern 1844 Parana Houston, TX 77080 $304,900 1,985 sq. ft. $154
2018-08-08 Single Family Traditional 11323 Old Mission Road Houston, TX 77095 $244,000 2,583 sq. ft. 7,405 sq. ft. $94
2018-08-08 Single Family Traditional 6741 Tournament Drive Houston, TX 77069 $200,000 2,159 sq. ft. 3,049 sq. ft. $93
2018-08-08 Single Family Traditional 19507 Maywood Falls Circle Houston, TX 77084 $239,900 1,936 sq. ft. 4,792 sq. ft. $124
2018-08-08 Single Family Traditional 14003 Crestbourne Court Houston, TX 77014 $161,900 1,545 sq. ft. 4,792 sq. ft. $105
2018-08-08 Single Family Traditional 4417 Viking Drive Houston, TX 77092 $315,000 1,188 sq. ft. 7,405 sq. ft. $265
2018-08-08 Single Family Traditional 3007 Providence Oak Street Houston, TX 77084 $239,900 3,048 sq. ft. 6,098 sq. ft. $79
2018-08-08 Single Family Traditional 14134 Kinsbourne Lane Houston, TX 77014 $189,000 2,370 sq. ft. 4,792 sq. ft. $80
2018-08-08 Single Family Traditional 12211 Fetlock Drive Houston, TX 77065 $160,000 1,490 sq. ft. 6,970 sq. ft. $107
2018-08-08 Single Family Contemporary/Modern; Traditional 11012 Clover Hollow Houston, TX 77043 $389,290 2,211 sq. ft. $176
2018-08-08 Single Family Traditional 17530 Whispering Star Court Houston, TX 77095 $284,900 2,429 sq. ft. 8,276 sq. ft. $117
2018-08-08 Single Family Traditional 17203 Buffalo Pass Drive Houston, TX 77095 $299,900 2,700 sq. ft. 13,504 sq. ft. $111
2018-08-07 Single Family Traditional 9915 Arrowgrass Drive Houston, TX 77064 $219,000 2,366 sq. ft. 6,534 sq. ft. $93
2018-08-07 Single Family Ranch 14115 Timberhaven Drive Houston, TX 77066 $115,000 1,398 sq. ft. 6,534 sq. ft. $82
2018-08-07 Single Family Ranch 4423 Marlborough Drive Houston, TX 77092 $224,500 1,380 sq. ft. 7,405 sq. ft. $163
2018-08-07 Single Family Traditional 9907 Therrell Drive Houston, TX 77064 $295,000 2,175 sq. ft. 8,712 sq. ft. $136
2018-08-07 Single Family Contemporary/Modern 16315 Thistleglen Drive Houston, TX 77095 $139,000 1,237 sq. ft. 6,534 sq. ft. $112
2018-08-07 Single Family Traditional 7515 Shaddock Drive Houston, TX 77041 $138,000 1,125 sq. ft. 4,792 sq. ft. $123
2018-08-07 Single Family Traditional 12127 Ember Isles Drive Houston, TX 77041 $497,500 2,815 sq. ft. 10,019 sq. ft. $177
2018-08-07 Single Family Traditional 2614 Anniston Drive Houston, TX 77080 $365,000 2,207 sq. ft. 9,148 sq. ft. $165
2018-08-07 Single Family Contemporary/Modern; French 14806 Royal Birkdale Street Houston, TX 77095 $246,000 2,194 sq. ft. 7,841 sq. ft. $112
2018-08-07 Single Family Traditional 1019 Romaine Lane Houston, TX 77090 $179,000 3,080 sq. ft. 10,454 sq. ft. $58
2018-08-07 Single Family Traditional 16534 Whitaker Creek Drive Houston, TX 77095 $190,000 1,556 sq. ft. 5,227 sq. ft. $122
2018-08-07 Single Family Traditional 523 31st Street Houston, TX 77018 $449,000 1,202 sq. ft. 11,326 sq. ft. $374
2018-08-07 Single Family Traditional 8502 Argentina Street Houston, TX 77040 $300,000 2,097 sq. ft. 13,504 sq. ft. $143
2018-08-07 Single Family Traditional 3482 Garden Grove Drive Houston, TX 77066 $125,000 1,314 sq. ft. 7,405 sq. ft. $95
2018-08-07 Single Family Traditional 4518 Pecan Park Circle Houston, TX 77018 $79,000 874 sq. ft. 1,742 sq. ft. $90
2018-08-07 Single Family Traditional 17122 Crown Meadow Court Houston, TX 77095 $238,000 2,138 sq. ft. 6,534 sq. ft. $111
2018-08-07 Single Family Contemporary/Modern 1811 Laurel Rose Lane Houston, TX 77014 $172,900 2,813 sq. ft. 6,970 sq. ft. $61
2018-08-07 Single Family Traditional 6505 Westview Drive Houston, TX 77055 $499,000 1,060 sq. ft. 8,276 sq. ft. $471
2018-08-07 Single Family Traditional 9511 Stone Castle Drive Houston, TX 77064 $330,000 3,000 sq. ft. 8,276 sq. ft. $110
2018-08-07 Single Family Ranch 8206 Fernbrook Lane Houston, TX 77070 $239,900 2,189 sq. ft. 10,019 sq. ft. $110
2018-08-07 Single Family Traditional 16314 Brookside Willow Lane Houston, TX 77084 $260,000 2,194 sq. ft. 6,970 sq. ft. $119
2018-08-07 Single Family Ranch 16707 Sonoma Del Norte Drive Houston, TX 77095 $299,900 2,922 sq. ft. 7,841 sq. ft. $103
2018-08-07 Single Family Traditional 16419 Crossfield Drive Houston, TX 77095 $225,000 2,630 sq. ft. 6,534 sq. ft. $86
2018-08-07 Single Family Traditional 1018 Helms Road Houston, TX 77088 $139,900 1,798 sq. ft. 8,276 sq. ft. $78
2018-08-07 Single Family Traditional 4417 Lido Lane Houston, TX 77092 $264,900 1,136 sq. ft. 7,405 sq. ft. $233
2018-08-07 Single Family Traditional 9302 Torridon Court Houston, TX 77095 $264,900 2,648 sq. ft. 8,712 sq. ft. $100
2018-08-07 Single Family Traditional 829 Wakefield Drive Houston, TX 77018 $399,500 2,456 sq. ft. 1,742 sq. ft. $163
2018-08-07 Single Family Traditional 8847 Distant Woods Drive Houston, TX 77095 $279,000 2,789 sq. ft. 6,970 sq. ft. $100
2018-08-07 Single Family Colonial; Traditional 2114 Denridge Drive Houston, TX 77038 $197,940 1,850 sq. ft. $107
2018-08-07 Single Family Colonial; Traditional 2130 Denridge Drive Houston, TX 77038 $192,790 1,825 sq. ft. $106
2018-08-07 Single Family Contemporary/Modern 13502 Villas Palmas Drive Drive Houston, TX 77070 $189,000 1,597 sq. ft. 3,049 sq. ft. $118
2018-08-07 Single Family Traditional 2127 Cherryville Drive Houston, TX 77038 $206,740 2,150 sq. ft. $96
2018-08-07 Single Family Traditional 13415 Tanner Ridge Court Houston, TX 77014 $202,815 1,931 sq. ft. $105
2018-08-07 Single Family Traditional 15614 Fox Springs Drive Houston, TX 77084 $158,000 1,768 sq. ft. 6,534 sq. ft. $89
2018-08-07 Single Family Traditional 13410 Bella Chase Drive Houston, TX 77014 $199,815 1,931 sq. ft. $103
2018-08-07 Single Family Traditional 18507 Gardens End Lane Houston, TX 77084 $259,864 2,046 sq. ft. $127
2018-08-07 Single Family Traditional 12823 Auburn Grove Lane Houston, TX 77041 $277,000 2,520 sq. ft. 7,841 sq. ft. $110
2018-08-07 Single Family Traditional 13406 Bella Chase Drive Houston, TX 77014 $237,665 2,667 sq. ft. $89
2018-08-07 Single Family Traditional 14802 Sandy Creek Drive Houston, TX 77070 $220,000 2,004 sq. ft. 9,583 sq. ft. $110
2018-08-07 Single Family Traditional 13419 Bella Chase Drive Houston, TX 77014 $198,536 1,866 sq. ft. $106
2018-08-07 Single Family Traditional 8106 Morning Rose Lane Houston, TX 77095 $469,900 4,304 sq. ft. 9,583 sq. ft. $109
2018-08-07 Single Family Traditional 15111 Ripplewind Lane Houston, TX 77068 $234,990 3,290 sq. ft. 8,712 sq. ft. $71
2018-08-07 Single Family Traditional 2407 Creekleaf Road Houston, TX 77068 $199,900 2,400 sq. ft. 26,572 sq. ft. $83
2018-08-07 Single Family Contemporary/Modern 7215 Tickner Street Houston, TX 77055 $1,095,000 4,050 sq. ft. 6,534 sq. ft. $270
2018-08-07 Single Family Traditional 7530 Magnolia Shadows Lane Houston, TX 77095 $296,000 2,631 sq. ft. 7,405 sq. ft. $112
2018-08-07 Single Family Traditional 954 43rd Street Houston, TX 77018 $379,500 9,583 sq. ft.
2018-08-07 Single Family Traditional 6522 Sutter Park Lane Houston, TX 77066 $203,900 2,243 sq. ft. 8,276 sq. ft. $91
2018-08-07 Single Family Traditional 4711 Windmill Run Drive Houston, TX 77069 $246,300 2,458 sq. ft. 4,792 sq. ft. $100
2018-08-07 Single Family Traditional 14635 Myrtle Point Drive Houston, TX 77069 $192,510 1,516 sq. ft. 4,356 sq. ft. $127
2018-08-07 Single Family Contemporary/Modern 6418 Hillman Glen Circle Houston, TX 77086 $173,000 2,118 sq. ft. 6,970 sq. ft. $82
2018-08-06 Single Family Traditional 9514 Jaywood Drive Houston, TX 77040 $99,500 1,086 sq. ft. 6,098 sq. ft. $92
2018-08-06 Single Family Other Style; Traditional 14935 Inverrary Drive Houston, TX 77095 $329,900 3,140 sq. ft. 7,405 sq. ft. $105
2018-08-06 Single Family Traditional 12310 Lakeshore Ridge Houston, TX 77041 $425,000 3,411 sq. ft. 10,019 sq. ft. $125
2018-08-06 Single Family Traditional 9502 Hanging Moss Trail Houston, TX 77064 $299,900 3,322 sq. ft. 10,454 sq. ft. $90
2018-08-06 Single Family Traditional 16431 Mesa Point Drive Houston, TX 77095 $229,900 2,212 sq. ft. 7,841 sq. ft. $104
2018-08-06 Single Family Traditional 7918 Maxroy Street Houston, TX 77088 $69,990 675 sq. ft. 6,970 sq. ft. $104
2018-08-06 Single Family Ranch 8714 Blankenship Drive Houston, TX 77080 $295,000 1,508 sq. ft. 9,583 sq. ft. $196
2018-08-06 Single Family Contemporary/Modern 5808 Gardendale Houston, TX 77092 $249,900 1,562 sq. ft. 1,742 sq. ft. $160
2018-08-06 Single Family Traditional 13515 Jessica Lane Houston, TX 77069 $268,800 2,738 sq. ft. 7,841 sq. ft. $98
2018-08-06 Single Family Traditional 19310 Clevera Walk Lane Houston, TX 77084 $219,900 2,360 sq. ft. 4,792 sq. ft. $93
2018-08-06 Single Family Traditional 7542 Maple Tree Drive Houston, TX 77088 $195,000 2,137 sq. ft. 10,454 sq. ft. $91
2018-08-06 Single Family Traditional 14511 Torrey Village Drive Houston, TX 77014 $234,000 3,242 sq. ft. 7,841 sq. ft. $72
2018-08-06 Single Family Colonial 4614 Oak Laurel Lane Houston, TX 77092 $330,000 2,076 sq. ft. 3,049 sq. ft. $159
2018-08-06 Single Family Traditional 7642 Winkle Wood Lane Houston, TX 77086 $147,000 1,480 sq. ft. 6,970 sq. ft. $99
2018-08-06 Single Family Traditional 5643 Grand Floral Boulevard Houston, TX 77041 $659,500 4,459 sq. ft. 10,454 sq. ft. $148
2018-08-06 Single Family Traditional 9406 Curry Landing Drive Houston, TX 77095 $229,900 2,524 sq. ft. 5,663 sq. ft. $91